Hauptseite
METAR-TAF:

METAR-TAF

Flughäfen :

Stockholm-Arlanda, Schweden

Flughafen Stockholm/Arlanda

Breite: 59-39N, Länge: 017-57E, Höhe: 38 m

Beobachtung

Neuester Wetterbericht von vor 16 Minuten, um 11:50 UTC
Wind 9 kt aus West/Südwest, variierte zwischen Süd/Südwest und West/Nordwest
Temperatur 17°C
Luftfeuchtigkeit 48%
Luftdruck 1007 hPa
Sichtweite 10 km oder mehr
keine Wolken unter 1500 m und keine Kumulonimbus oder Gewitterwolken

METAR: ESSA 221150Z 25009KT 210V290 CAVOK 17/06 Q1007 NOSIG

Zeit: 14:06 (12:06 UTC)

Prognose

Neuester Wetterbericht von vor 36 Minuten, um 11:30 UTC
Gültige Prognose vom 22 um 12 UTC bis 23 um 12 UTC
Wind 7 kt aus West
Sichtweite 10 km oder mehr
keine Wolken unter 1500 m und keine Kumulonimbus oder Gewitterwolken
Übergehend zu
vom 22 um 16 UTC bis 22 um 18 UTC
Wind 10 kt aus Ost/Südost

TAF: ESSA 221130Z 2212/2312 28007KT CAVOK BECMG 2216/2218 11010KT

Wetterbeobachtungen und Prognosen von mehr als 4000 Flughäfen (METAR und TAF Bericht).

Die verfügbaren Stationen werden durch gelbe und rote Markierungen auf der Karte dargestellt.

Führen Sie die Maus auf sie, um den Namen der Station zu sehen.

Darauf klicken, um die Beobachtung von Wetterbeobachtungen und Prognosen zu sehen.

Um die Karte zu ändern : klicken Sie auf den grünen Tasten mit einem schwarzen Kreuz Zum Vergrößern, auf den grünen Button mit einem Gedankenstrich zu verkleinern, oder auf die grünen Pfeile für benachbarte Karten.


METAR-TAF: